createdAt,value
2022-08-02T00:02:19.639Z,46.40
2022-08-02T00:05:40.447Z,46.59
2022-08-02T00:09:01.481Z,46.69
2022-08-02T00:12:23.452Z,46.83
2022-08-02T00:15:44.397Z,47.15
2022-08-02T00:19:05.437Z,47.45
2022-08-02T00:22:26.418Z,47.71
2022-08-02T00:25:55.352Z,47.74
2022-08-02T00:29:16.437Z,47.94
2022-08-02T00:32:37.467Z,48.12
2022-08-02T00:35:58.472Z,48.48
2022-08-02T00:39:35.340Z,48.42
2022-08-02T00:42:56.423Z,48.48
2022-08-02T00:46:17.454Z,48.54
2022-08-02T00:49:38.537Z,48.50
2022-08-02T00:52:59.424Z,48.64
2022-08-02T00:56:20.424Z,48.70
2022-08-02T00:59:41.408Z,48.85
2022-08-02T01:02:55.413Z,48.98
2022-08-02T01:06:16.509Z,49.15
2022-08-02T01:09:37.463Z,49.64
2022-08-02T01:12:58.443Z,49.46
2022-08-02T01:16:27.431Z,49.69
2022-08-02T01:19:56.474Z,49.77
2022-08-02T01:23:53.433Z,49.80
2022-08-02T01:27:39.463Z,49.88
2022-08-02T01:31:04.462Z,49.59
2022-08-02T01:34:41.487Z,49.89
2022-08-02T01:38:12.452Z,49.93
2022-08-02T01:41:36.492Z,50.01
2022-08-02T01:44:59.469Z,50.43
2022-08-02T01:48:22.430Z,50.45
2022-08-02T01:52:03.467Z,50.63
2022-08-02T01:55:35.358Z,50.36
2022-08-02T01:59:09.446Z,50.36
2022-08-02T02:02:32.468Z,50.49
2022-08-02T02:05:54.490Z,50.51
2022-08-02T02:09:16.475Z,50.26
2022-08-02T02:12:38.472Z,50.24
2022-08-02T02:16:20.458Z,50.07
2022-08-02T02:19:42.452Z,50.03
2022-08-02T02:23:04.103Z,49.86
2022-08-02T02:26:31.200Z,49.83
2022-08-02T02:29:57.506Z,49.97
2022-08-02T02:33:22.671Z,49.61
2022-08-02T02:36:48.503Z,49.94
2022-08-02T02:40:10.449Z,49.69
2022-08-02T02:43:32.460Z,49.81
2022-08-02T02:46:54.459Z,49.89
2022-08-02T02:50:16.573Z,49.84
2022-08-02T02:54:33.739Z,49.77
2022-08-02T02:57:20.557Z,49.89
2022-08-02T03:01:00.543Z,49.77
2022-08-02T03:04:24.475Z,49.78
2022-08-02T03:07:47.491Z,49.72
2022-08-02T03:11:10.476Z,49.71
2022-08-02T03:14:31.474Z,49.47
2022-08-02T03:17:57.481Z,49.41
2022-08-02T03:21:20.512Z,49.26
2022-08-02T03:24:41.495Z,49.50
2022-08-02T03:28:02.555Z,49.10
2022-08-02T03:31:23.476Z,49.17
2022-08-02T03:34:44.499Z,49.01
2022-08-02T03:38:09.466Z,48.89
2022-08-02T03:41:32.509Z,48.83
2022-08-02T03:44:53.467Z,48.50
2022-08-02T03:48:30.534Z,48.55
2022-08-02T03:51:55.499Z,48.42
2022-08-02T03:55:16.495Z,48.29
2022-08-02T03:58:38.542Z,48.02
2022-08-02T04:01:59.487Z,47.63
2022-08-02T04:05:24.547Z,47.07
2022-08-02T04:08:46.506Z,46.67
2022-08-02T04:12:07.712Z,46.30
2022-08-02T04:15:29.492Z,45.89
2022-08-02T04:18:56.462Z,45.40
2022-08-02T04:22:19.511Z,45.06
2022-08-02T04:25:41.581Z,45.02
2022-08-02T04:29:04.556Z,44.77
2022-08-02T04:32:25.508Z,44.51
2022-08-02T04:35:46.539Z,44.55
2022-08-02T04:39:07.534Z,44.07
2022-08-02T04:42:36.493Z,43.71
2022-08-02T04:45:58.540Z,43.15
2022-08-02T04:49:20.554Z,42.73
2022-08-02T04:52:45.677Z,42.44
2022-08-02T04:56:06.538Z,42.12
2022-08-02T04:59:27.548Z,42.27
2022-08-02T05:02:48.490Z,42.05
2022-08-02T05:06:19.462Z,42.36
2022-08-02T05:09:40.571Z,41.94
2022-08-02T05:13:01.593Z,42.08
2022-08-02T05:16:22.512Z,42.14
2022-08-02T05:23:13.513Z,42.68
2022-08-02T05:26:34.522Z,43.19
2022-08-02T05:29:57.104Z,43.12
2022-08-02T05:33:17.588Z,42.74
2022-08-02T05:36:38.493Z,42.64
2022-08-02T05:40:03.547Z,42.22
2022-08-02T05:43:28.508Z,41.74
2022-08-02T05:46:49.515Z,41.41
2022-08-02T05:50:10.532Z,41.09
2022-08-02T05:54:18.501Z,40.91
2022-08-02T05:58:04.579Z,40.71
2022-08-02T06:01:27.535Z,40.64
2022-08-02T06:05:12.602Z,40.47
2022-08-02T06:08:36.549Z,40.27
2022-08-02T06:12:02.250Z,40.06
2022-08-02T06:15:27.522Z,39.94
2022-08-02T06:18:49.540Z,39.60
2022-08-02T06:22:36.111Z,39.35
2022-08-02T06:26:00.619Z,39.10
2022-08-02T06:29:23.280Z,39.28
2022-08-02T06:32:45.627Z,39.44
2022-08-02T06:36:24.558Z,39.29
2022-08-02T06:39:49.530Z,39.07
2022-08-02T06:43:26.556Z,39.05
2022-08-02T06:47:12.011Z,38.83
2022-08-02T06:50:29.604Z,37.97
2022-08-02T06:53:51.546Z,37.85
2022-08-02T06:57:12.606Z,38.38
2022-08-02T07:00:33.545Z,38.47
2022-08-02T07:03:54.539Z,39.00
2022-08-02T07:07:17.577Z,39.21
2022-08-02T07:10:38.554Z,39.19
2022-08-02T07:13:59.539Z,38.90
2022-08-02T07:17:20.541Z,38.76
2022-08-02T07:20:41.558Z,39.05
2022-08-02T07:24:02.555Z,39.05
2022-08-02T07:27:23.543Z,39.32
2022-08-02T07:30:39.599Z,39.04
2022-08-02T07:34:00.558Z,38.97
2022-08-02T07:37:22.359Z,38.71
2022-08-02T07:40:57.569Z,38.44
2022-08-02T07:44:18.558Z,38.14
2022-08-02T07:47:39.563Z,38.15
2022-08-02T07:51:00.601Z,37.76
2022-08-02T07:54:21.580Z,37.58
2022-08-02T07:57:46.211Z,37.21
2022-08-02T08:01:07.644Z,37.10
2022-08-02T08:04:24.748Z,37.09
2022-08-02T08:07:38.603Z,36.51
2022-08-02T08:11:00.556Z,36.17
2022-08-02T08:14:21.630Z,35.68
2022-08-02T08:17:42.577Z,35.44
2022-08-02T08:21:04.197Z,35.00
2022-08-02T08:24:25.594Z,34.58
2022-08-02T08:27:46.656Z,34.48
2022-08-02T08:31:07.567Z,34.28
2022-08-02T08:34:30.602Z,33.52
2022-08-02T08:37:52.608Z,33.74
2022-08-02T08:41:13.585Z,32.90
2022-08-02T08:44:34.566Z,32.77
2022-08-02T08:47:56.618Z,32.69
2022-08-02T08:51:51.550Z,32.54
2022-08-02T08:55:13.634Z,32.19
2022-08-02T08:58:34.581Z,31.56
2022-08-02T09:01:58.695Z,31.77
2022-08-02T09:05:37.599Z,31.81
2022-08-02T09:08:58.590Z,30.94
2022-08-02T09:12:33.620Z,31.15
2022-08-02T09:15:56.639Z,30.74
2022-08-02T09:19:36.630Z,30.63
2022-08-02T09:22:57.639Z,30.57
2022-08-02T09:26:21.590Z,30.66
2022-08-02T09:30:05.251Z,31.26
2022-08-02T09:33:23.629Z,31.11
2022-08-02T09:36:54.928Z,30.96
2022-08-02T09:40:17.600Z,30.84
2022-08-02T09:44:05.451Z,30.52
2022-08-02T09:47:30.935Z,29.92
2022-08-02T09:50:52.599Z,29.30
2022-08-02T09:54:16.604Z,29.34
2022-08-02T09:57:40.747Z,28.90
2022-08-02T10:01:11.680Z,28.67
2022-08-02T10:04:52.543Z,28.46
2022-08-02T10:08:46.677Z,28.20
2022-08-02T10:12:07.644Z,27.68
2022-08-02T10:15:29.650Z,27.39
2022-08-02T10:18:50.626Z,26.87
2022-08-02T10:22:30.633Z,26.83
2022-08-02T10:25:52.602Z,27.20
2022-08-02T10:29:13.589Z,27.94
2022-08-02T10:32:42.659Z,28.17
2022-08-02T10:36:07.985Z,27.59
2022-08-02T10:39:28.685Z,27.39
2022-08-02T10:43:01.698Z,27.44
2022-08-02T10:46:47.649Z,27.62
2022-08-02T10:50:10.705Z,28.06
2022-08-02T10:53:44.633Z,28.21
2022-08-02T10:57:07.662Z,27.88
2022-08-02T11:00:37.669Z,28.09
2022-08-02T11:03:58.641Z,28.04
2022-08-02T11:07:27.624Z,28.01
2022-08-02T11:10:44.659Z,28.01
2022-08-02T11:14:20.610Z,28.55
2022-08-02T11:17:41.637Z,28.47
2022-08-02T11:21:35.632Z,27.93
2022-08-02T11:24:56.707Z,28.23
2022-08-02T11:28:25.429Z,27.96
2022-08-02T11:31:54.696Z,28.07
2022-08-02T11:35:16.619Z,27.70
2022-08-02T11:38:37.705Z,27.82
2022-08-02T11:42:12.840Z,27.72
2022-08-02T11:45:39.645Z,27.66
2022-08-02T11:49:00.710Z,27.56
2022-08-02T11:52:22.657Z,27.44
2022-08-02T11:56:03.782Z,27.35
2022-08-02T11:59:18.665Z,27.11
2022-08-02T12:02:44.855Z,27.07
2022-08-02T12:06:10.964Z,26.83
2022-08-02T12:09:41.354Z,26.53
2022-08-02T12:13:11.654Z,26.59
2022-08-02T12:16:50.660Z,26.35
2022-08-02T12:20:11.645Z,26.01
2022-08-02T12:23:32.663Z,26.42
2022-08-02T12:27:00.649Z,26.41
2022-08-02T12:30:27.511Z,26.65
2022-08-02T12:34:00.700Z,26.72
2022-08-02T12:37:23.652Z,26.36
2022-08-02T12:40:39.696Z,25.85
2022-08-02T12:44:00.748Z,25.83
2022-08-02T12:47:22.683Z,24.92
2022-08-02T12:50:46.679Z,23.93
2022-08-02T12:54:08.685Z,22.22
2022-08-02T12:57:31.726Z,20.69
2022-08-02T13:00:52.664Z,20.09
2022-08-02T13:04:16.351Z,21.32
2022-08-02T13:07:37.742Z,21.01
2022-08-02T13:10:58.642Z,20.72
2022-08-02T13:14:19.721Z,19.59
2022-08-02T13:17:40.672Z,18.49
2022-08-02T13:21:01.720Z,18.58
2022-08-02T13:24:41.310Z,18.82
2022-08-02T13:28:04.734Z,19.25
2022-08-02T13:31:36.280Z,17.87
2022-08-02T13:34:57.662Z,16.91
2022-08-02T13:38:21.925Z,16.69
2022-08-02T13:41:45.677Z,16.47
2022-08-02T13:45:12.867Z,17.30
2022-08-02T13:48:34.690Z,18.75
2022-08-02T13:51:55.698Z,20.29
2022-08-02T13:55:16.762Z,20.87
2022-08-02T13:58:37.711Z,20.98
2022-08-02T14:01:58.968Z,20.28
2022-08-02T14:05:19.753Z,19.57
2022-08-02T14:09:00.765Z,20.63
2022-08-02T14:12:56.456Z,21.23
2022-08-02T14:16:17.688Z,19.92
2022-08-02T14:19:38.706Z,19.77
2022-08-02T14:23:00.662Z,19.83
2022-08-02T14:26:26.775Z,17.92
2022-08-02T14:29:48.715Z,16.44
2022-08-02T14:33:10.687Z,16.74
2022-08-02T14:36:31.701Z,17.45
2022-08-02T14:40:00.783Z,18.33
2022-08-02T14:43:41.672Z,17.89
2022-08-02T14:47:02.801Z,16.46
2022-08-02T14:50:24.677Z,15.29
2022-08-02T14:53:49.683Z,15.00
2022-08-02T14:57:23.752Z,15.32
2022-08-02T15:00:44.698Z,16.47
2022-08-02T15:04:05.716Z,16.34
2022-08-02T15:07:26.733Z,16.60
2022-08-02T15:10:47.740Z,17.26
2022-08-02T15:14:08.766Z,18.12
2022-08-02T15:17:29.735Z,19.58
2022-08-02T15:21:18.954Z,19.77
2022-08-02T15:24:46.737Z,20.12
2022-08-02T15:28:07.720Z,19.91
2022-08-02T15:31:33.630Z,18.51
2022-08-02T15:34:54.733Z,16.74
2022-08-02T15:38:15.722Z,15.42
2022-08-02T15:41:38.747Z,14.84
2022-08-02T15:44:59.731Z,14.50
2022-08-02T15:48:20.800Z,14.25
2022-08-02T15:51:41.697Z,13.89
2022-08-02T15:55:07.214Z,14.47
2022-08-02T15:58:28.738Z,14.57
2022-08-02T16:01:49.785Z,14.76
2022-08-02T16:05:13.957Z,14.56
2022-08-02T16:08:34.724Z,14.56
2022-08-02T16:11:55.760Z,14.70
2022-08-02T16:15:17.725Z,14.80
2022-08-02T16:18:38.739Z,15.20
2022-08-02T16:21:59.731Z,15.40
2022-08-02T16:25:20.722Z,15.73
2022-08-02T16:28:41.728Z,16.07
2022-08-02T16:32:02.731Z,16.07
2022-08-02T16:35:23.744Z,17.19
2022-08-02T16:38:44.784Z,18.89
2022-08-02T16:42:05.773Z,20.75
2022-08-02T16:45:26.713Z,22.36
2022-08-02T16:48:51.078Z,23.27
2022-08-02T16:52:11.713Z,24.26
2022-08-02T16:55:32.739Z,25.00
2022-08-02T16:58:53.719Z,25.59
2022-08-02T17:02:18.398Z,26.02
2022-08-02T17:05:56.158Z,26.50
2022-08-02T17:10:02.550Z,27.15
2022-08-02T17:13:11.528Z,27.59
2022-08-02T17:16:37.840Z,27.99
2022-08-02T17:20:00.803Z,28.19
2022-08-02T17:24:06.283Z,28.92
2022-08-02T17:27:08.902Z,29.29
2022-08-02T17:30:34.395Z,29.50
2022-08-02T17:33:54.832Z,29.74
2022-08-02T17:37:15.776Z,30.10
2022-08-02T17:40:38.758Z,30.69
2022-08-02T17:43:59.777Z,30.68
2022-08-02T17:47:22.766Z,31.26
2022-08-02T17:50:52.823Z,31.34
2022-08-02T17:54:13.772Z,31.74
2022-08-02T18:01:24.149Z,32.28
2022-08-02T18:04:44.758Z,32.53
2022-08-02T18:08:06.745Z,32.81
2022-08-02T18:11:52.512Z,33.26
2022-08-02T18:15:14.604Z,33.04
2022-08-02T18:18:35.735Z,33.70
2022-08-02T18:21:57.801Z,33.89
2022-08-02T18:25:37.252Z,33.81
2022-08-02T18:28:59.759Z,34.34
2022-08-02T18:33:58.840Z,34.49
2022-08-02T18:36:01.748Z,34.78
2022-08-02T18:39:22.859Z,35.07
2022-08-02T18:42:43.783Z,35.29
2022-08-02T18:46:16.252Z,35.31
2022-08-02T18:49:46.553Z,35.87
2022-08-02T18:53:08.794Z,35.74
2022-08-02T18:56:29.777Z,35.86
2022-08-02T18:59:55.783Z,35.92
2022-08-02T19:03:19.157Z,36.18
2022-08-02T19:06:39.814Z,36.18
2022-08-02T19:10:02.753Z,36.50
2022-08-02T19:13:25.775Z,36.52
2022-08-02T19:16:46.777Z,36.62
2022-08-02T19:20:08.805Z,36.68
2022-08-02T19:23:30.814Z,36.99
2022-08-02T19:27:04.759Z,37.15
2022-08-02T19:30:34.817Z,37.10
2022-08-02T19:34:07.274Z,37.18
2022-08-02T19:37:37.040Z,37.09
2022-08-02T19:40:59.799Z,37.15
2022-08-02T19:44:29.288Z,37.04
2022-08-02T19:47:54.316Z,36.76
2022-08-02T19:51:15.816Z,36.68
2022-08-02T19:54:59.669Z,36.47
2022-08-02T19:58:38.819Z,36.35
2022-08-02T20:02:05.799Z,36.21
2022-08-02T20:05:27.284Z,36.48
2022-08-02T20:08:52.831Z,36.31
2022-08-02T20:12:14.133Z,36.49
2022-08-02T20:15:56.235Z,36.60
2022-08-02T20:19:21.764Z,36.73
2022-08-02T20:23:32.150Z,36.75
2022-08-02T20:26:47.988Z,37.06
2022-08-02T20:30:09.822Z,36.90
2022-08-02T20:33:32.798Z,37.01
2022-08-02T20:36:54.113Z,37.33
2022-08-02T20:43:48.862Z,37.71
2022-08-02T20:47:09.850Z,37.74
2022-08-02T20:50:49.345Z,37.92
2022-08-02T20:54:11.818Z,38.21
2022-08-02T20:57:48.934Z,38.53
2022-08-02T21:01:13.881Z,38.68
2022-08-02T21:04:34.804Z,38.64
2022-08-02T21:07:56.865Z,39.14
2022-08-02T21:11:18.835Z,39.00
2022-08-02T21:14:39.832Z,39.57
2022-08-02T21:18:06.864Z,39.72
2022-08-02T21:21:26.848Z,39.80
2022-08-02T21:24:48.862Z,40.15
2022-08-02T21:28:17.419Z,40.00
2022-08-02T21:31:38.894Z,40.27
2022-08-02T21:35:02.851Z,40.45
2022-08-02T21:38:35.554Z,40.70
2022-08-02T21:41:57.904Z,40.65
2022-08-02T21:45:19.986Z,40.96
2022-08-02T21:48:40.843Z,40.91
2022-08-02T21:52:02.803Z,41.17
2022-08-02T21:55:24.358Z,41.21
2022-08-02T21:59:14.841Z,41.23
2022-08-02T22:02:36.841Z,41.37
2022-08-02T22:05:58.831Z,41.69
2022-08-02T22:09:42.293Z,41.94
2022-08-02T22:13:00.808Z,41.87
2022-08-02T22:16:21.823Z,41.85
2022-08-02T22:19:53.816Z,41.99
2022-08-02T22:26:56.865Z,42.24
2022-08-02T22:30:17.868Z,42.37
2022-08-02T22:34:01.284Z,42.35
2022-08-02T22:38:17.506Z,42.24
2022-08-02T22:41:04.885Z,42.72
2022-08-02T22:44:29.828Z,42.93
2022-08-02T22:47:51.410Z,42.95
2022-08-02T22:51:13.884Z,43.24
2022-08-02T22:54:34.836Z,43.26
2022-08-02T22:57:57.173Z,43.68
2022-08-02T22:58:41.285Z,31.93
2022-08-02T22:58:55.965Z,37.71
2022-08-02T22:59:10.715Z,41.94
2022-08-02T23:01:17.921Z,43.63
2022-08-02T23:04:38.905Z,43.63
2022-08-02T23:07:59.874Z,43.71
2022-08-02T23:11:20.875Z,43.98
2022-08-02T23:14:41.867Z,44.00
2022-08-02T23:18:21.841Z,44.22
2022-08-02T23:22:01.801Z,44.42
2022-08-02T23:25:23.988Z,44.45
2022-08-02T23:28:37.860Z,44.49
2022-08-02T23:31:59.930Z,44.52
2022-08-02T23:35:22.951Z,44.75
2022-08-02T23:38:43.896Z,44.82
2022-08-02T23:42:04.902Z,45.15
2022-08-02T23:45:25.850Z,45.13
2022-08-02T23:48:55.883Z,45.19
2022-08-02T23:52:17.250Z,45.02
2022-08-02T23:55:37.858Z,45.08
2022-08-02T23:58:59.904Z,45.28
